sensor_id;sensor_type;location;lat;lon;timestamp;temperature;humidity
4643;DHT22;2334;48.710;9.622;2023-02-11T00:00:59;-3.50;99.90
4643;DHT22;2334;48.710;9.622;2023-02-11T00:03:26;-3.50;99.90
4643;DHT22;2334;48.710;9.622;2023-02-11T00:05:57;-3.40;99.90
4643;DHT22;2334;48.710;9.622;2023-02-11T00:08:24;-3.40;99.90
4643;DHT22;2334;48.710;9.622;2023-02-11T00:10:52;-3.50;99.90
4643;DHT22;2334;48.710;9.622;2023-02-11T00:13:21;-3.60;99.90
4643;DHT22;2334;48.710;9.622;2023-02-11T00:15:48;-3.60;99.90
4643;DHT22;2334;48.710;9.622;2023-02-11T00:18:16;-3.50;99.90
4643;DHT22;2334;48.710;9.622;2023-02-11T00:20:42;-3.40;99.90
4643;DHT22;2334;48.710;9.622;2023-02-11T00:23:09;-3.40;99.90
4643;DHT22;2334;48.710;9.622;2023-02-11T00:25:38;-3.40;99.90
4643;DHT22;2334;48.710;9.622;2023-02-11T00:28:05;-3.40;99.90
4643;DHT22;2334;48.710;9.622;2023-02-11T00:30:33;-3.40;99.90
4643;DHT22;2334;48.710;9.622;2023-02-11T00:33:01;-3.50;99.90
4643;DHT22;2334;48.710;9.622;2023-02-11T00:35:28;-3.50;99.90
4643;DHT22;2334;48.710;9.622;2023-02-11T00:37:55;-3.50;99.90
4643;DHT22;2334;48.710;9.622;2023-02-11T00:40:22;-3.60;99.90
4643;DHT22;2334;48.710;9.622;2023-02-11T00:42:49;-3.70;99.90
4643;DHT22;2334;48.710;9.622;2023-02-11T00:45:16;-3.60;99.90
4643;DHT22;2334;48.710;9.622;2023-02-11T00:47:46;-3.60;99.90
4643;DHT22;2334;48.710;9.622;2023-02-11T00:50:13;-3.60;99.90
4643;DHT22;2334;48.710;9.622;2023-02-11T00:52:40;-3.60;99.90
4643;DHT22;2334;48.710;9.622;2023-02-11T00:55:08;-3.60;99.90
4643;DHT22;2334;48.710;9.622;2023-02-11T00:57:34;-3.70;99.90
4643;DHT22;2334;48.710;9.622;2023-02-11T01:00:02;-3.70;99.90
4643;DHT22;2334;48.710;9.622;2023-02-11T01:02:29;-3.70;99.90
4643;DHT22;2334;48.710;9.622;2023-02-11T01:04:57;-3.70;99.90
4643;DHT22;2334;48.710;9.622;2023-02-11T01:07:25;-3.80;99.90
4643;DHT22;2334;48.710;9.622;2023-02-11T01:09:52;-4.00;99.90
4643;DHT22;2334;48.710;9.622;2023-02-11T01:12:19;-4.00;99.90
4643;DHT22;2334;48.710;9.622;2023-02-11T01:14:46;-3.90;99.90
4643;DHT22;2334;48.710;9.622;2023-02-11T01:17:14;-3.90;99.90
4643;DHT22;2334;48.710;9.622;2023-02-11T01:19:41;-3.90;99.90
4643;DHT22;2334;48.710;9.622;2023-02-11T01:22:09;-3.90;99.90
4643;DHT22;2334;48.710;9.622;2023-02-11T01:24:36;-4.00;99.90
4643;DHT22;2334;48.710;9.622;2023-02-11T01:27:03;-3.90;99.90
4643;DHT22;2334;48.710;9.622;2023-02-11T01:29:30;-3.90;99.90
4643;DHT22;2334;48.710;9.622;2023-02-11T01:31:57;-3.90;99.90
4643;DHT22;2334;48.710;9.622;2023-02-11T01:34:24;-3.90;99.90
4643;DHT22;2334;48.710;9.622;2023-02-11T01:36:56;-3.80;99.90
4643;DHT22;2334;48.710;9.622;2023-02-11T01:39:24;-3.80;99.90
4643;DHT22;2334;48.710;9.622;2023-02-11T01:41:51;-3.90;99.90
4643;DHT22;2334;48.710;9.622;2023-02-11T01:44:24;-3.90;99.90
4643;DHT22;2334;48.710;9.622;2023-02-11T01:46:52;-3.90;99.90
4643;DHT22;2334;48.710;9.622;2023-02-11T01:49:22;-3.90;99.90
4643;DHT22;2334;48.710;9.622;2023-02-11T01:51:53;-3.90;99.90
4643;DHT22;2334;48.710;9.622;2023-02-11T01:54:25;-4.00;99.90
4643;DHT22;2334;48.710;9.622;2023-02-11T01:57:12;-4.00;99.90
4643;DHT22;2334;48.710;9.622;2023-02-11T02:00:07;-4.10;99.90
4643;DHT22;2334;48.710;9.622;2023-02-11T02:02:39;-4.10;99.90
4643;DHT22;2334;48.710;9.622;2023-02-11T02:05:16;-4.10;99.90
4643;DHT22;2334;48.710;9.622;2023-02-11T02:07:52;-4.10;99.90
4643;DHT22;2334;48.710;9.622;2023-02-11T02:10:24;-4.10;99.90
4643;DHT22;2334;48.710;9.622;2023-02-11T02:12:52;-4.10;99.90
4643;DHT22;2334;48.710;9.622;2023-02-11T02:15:30;-4.10;99.90
4643;DHT22;2334;48.710;9.622;2023-02-11T02:18:01;-4.10;99.90
4643;DHT22;2334;48.710;9.622;2023-02-11T02:20:51;-4.10;99.90
4643;DHT22;2334;48.710;9.622;2023-02-11T02:23:34;-4.10;99.90
4643;DHT22;2334;48.710;9.622;2023-02-11T02:26:49;-4.10;99.90
4643;DHT22;2334;48.710;9.622;2023-02-11T02:32:38;-4.00;99.90
4643;DHT22;2334;48.710;9.622;2023-02-11T02:35:14;-3.90;99.90
4643;DHT22;2334;48.710;9.622;2023-02-11T02:37:49;-3.90;99.90
4643;DHT22;2334;48.710;9.622;2023-02-11T02:40:21;-3.90;99.90
4643;DHT22;2334;48.710;9.622;2023-02-11T02:42:50;-3.90;99.90
4643;DHT22;2334;48.710;9.622;2023-02-11T02:45:18;-4.00;99.90
4643;DHT22;2334;48.710;9.622;2023-02-11T02:47:47;-4.00;99.90
4643;DHT22;2334;48.710;9.622;2023-02-11T02:50:16;-4.00;99.90
4643;DHT22;2334;48.710;9.622;2023-02-11T02:52:58;-4.00;99.90
4643;DHT22;2334;48.710;9.622;2023-02-11T02:55:38;-4.00;99.90
4643;DHT22;2334;48.710;9.622;2023-02-11T02:58:26;-4.00;99.90
4643;DHT22;2334;48.710;9.622;2023-02-11T03:01:02;-4.00;99.90
4643;DHT22;2334;48.710;9.622;2023-02-11T03:03:40;-4.00;99.90
4643;DHT22;2334;48.710;9.622;2023-02-11T03:06:12;-3.90;99.90
4643;DHT22;2334;48.710;9.622;2023-02-11T03:08:43;-3.90;99.90
4643;DHT22;2334;48.710;9.622;2023-02-11T03:11:14;-3.90;99.90
4643;DHT22;2334;48.710;9.622;2023-02-11T03:13:43;-3.90;99.90
4643;DHT22;2334;48.710;9.622;2023-02-11T03:16:15;-3.90;99.90
4643;DHT22;2334;48.710;9.622;2023-02-11T03:18:48;-3.80;99.90
4643;DHT22;2334;48.710;9.622;2023-02-11T03:21:15;-3.90;99.90
4643;DHT22;2334;48.710;9.622;2023-02-11T03:23:47;-3.90;99.90
4643;DHT22;2334;48.710;9.622;2023-02-11T03:26:20;-3.80;99.90
4643;DHT22;2334;48.710;9.622;2023-02-11T03:28:51;-3.90;99.90
4643;DHT22;2334;48.710;9.622;2023-02-11T03:31:27;-3.90;99.90
4643;DHT22;2334;48.710;9.622;2023-02-11T03:34:01;-3.90;99.90
4643;DHT22;2334;48.710;9.622;2023-02-11T03:36:34;-3.90;99.90
4643;DHT22;2334;48.710;9.622;2023-02-11T03:39:03;-3.90;99.90
4643;DHT22;2334;48.710;9.622;2023-02-11T03:41:33;-3.80;99.90
4643;DHT22;2334;48.710;9.622;2023-02-11T03:44:01;-3.70;99.90
4643;DHT22;2334;48.710;9.622;2023-02-11T03:46:32;-3.70;99.90
4643;DHT22;2334;48.710;9.622;2023-02-11T03:49:03;-3.60;99.90
4643;DHT22;2334;48.710;9.622;2023-02-11T03:51:32;-3.50;99.90
4643;DHT22;2334;48.710;9.622;2023-02-11T03:54:02;-3.50;99.90
4643;DHT22;2334;48.710;9.622;2023-02-11T03:56:37;-3.50;99.90
4643;DHT22;2334;48.710;9.622;2023-02-11T03:59:06;-3.50;99.90
4643;DHT22;2334;48.710;9.622;2023-02-11T04:01:33;-3.50;99.90
4643;DHT22;2334;48.710;9.622;2023-02-11T04:04:02;-3.50;99.90
4643;DHT22;2334;48.710;9.622;2023-02-11T04:06:29;-3.40;99.90
4643;DHT22;2334;48.710;9.622;2023-02-11T04:08:55;-3.40;99.90
4643;DHT22;2334;48.710;9.622;2023-02-11T04:11:23;-3.40;99.90
4643;DHT22;2334;48.710;9.622;2023-02-11T04:13:49;-3.30;99.90
4643;DHT22;2334;48.710;9.622;2023-02-11T04:16:16;-3.20;99.90
4643;DHT22;2334;48.710;9.622;2023-02-11T04:18:43;-3.20;99.90
4643;DHT22;2334;48.710;9.622;2023-02-11T04:21:11;-3.20;99.90
4643;DHT22;2334;48.710;9.622;2023-02-11T04:23:38;-3.10;99.90
4643;DHT22;2334;48.710;9.622;2023-02-11T04:26:05;-3.10;99.90
4643;DHT22;2334;48.710;9.622;2023-02-11T04:28:32;-3.00;99.90
4643;DHT22;2334;48.710;9.622;2023-02-11T04:30:59;-3.00;99.90
4643;DHT22;2334;48.710;9.622;2023-02-11T04:33:26;-3.00;99.90
4643;DHT22;2334;48.710;9.622;2023-02-11T04:35:53;-3.00;99.90
4643;DHT22;2334;48.710;9.622;2023-02-11T04:38:21;-3.00;99.90
4643;DHT22;2334;48.710;9.622;2023-02-11T04:40:49;-3.00;99.90
4643;DHT22;2334;48.710;9.622;2023-02-11T04:43:16;-2.90;99.90
4643;DHT22;2334;48.710;9.622;2023-02-11T04:45:43;-2.90;99.90
4643;DHT22;2334;48.710;9.622;2023-02-11T04:48:10;-2.80;99.90
4643;DHT22;2334;48.710;9.622;2023-02-11T04:50:37;-2.80;99.90
4643;DHT22;2334;48.710;9.622;2023-02-11T04:53:03;-2.80;99.90
4643;DHT22;2334;48.710;9.622;2023-02-11T04:55:32;-2.70;99.90
4643;DHT22;2334;48.710;9.622;2023-02-11T04:57:58;-2.70;99.90
4643;DHT22;2334;48.710;9.622;2023-02-11T05:00:25;-2.70;99.90
4643;DHT22;2334;48.710;9.622;2023-02-11T05:02:52;-2.70;99.90
4643;DHT22;2334;48.710;9.622;2023-02-11T05:05:19;-2.70;99.90
4643;DHT22;2334;48.710;9.622;2023-02-11T05:07:46;-2.60;99.90
4643;DHT22;2334;48.710;9.622;2023-02-11T05:10:13;-2.60;99.90
4643;DHT22;2334;48.710;9.622;2023-02-11T05:12:41;-2.50;99.90
4643;DHT22;2334;48.710;9.622;2023-02-11T05:15:08;-2.50;99.90
4643;DHT22;2334;48.710;9.622;2023-02-11T05:17:35;-2.50;99.90
4643;DHT22;2334;48.710;9.622;2023-02-11T05:20:02;-2.40;99.90
4643;DHT22;2334;48.710;9.622;2023-02-11T05:22:29;-2.40;99.90
4643;DHT22;2334;48.710;9.622;2023-02-11T05:24:56;-2.40;99.90
4643;DHT22;2334;48.710;9.622;2023-02-11T05:27:23;-2.40;99.90
4643;DHT22;2334;48.710;9.622;2023-02-11T05:29:51;-2.40;99.90
4643;DHT22;2334;48.710;9.622;2023-02-11T05:32:20;-2.40;99.90
4643;DHT22;2334;48.710;9.622;2023-02-11T05:34:47;-2.40;99.90
4643;DHT22;2334;48.710;9.622;2023-02-11T05:37:14;-2.40;99.90
4643;DHT22;2334;48.710;9.622;2023-02-11T05:39:41;-2.30;99.90
4643;DHT22;2334;48.710;9.622;2023-02-11T05:42:08;-2.30;99.90
4643;DHT22;2334;48.710;9.622;2023-02-11T05:44:35;-2.30;99.90
4643;DHT22;2334;48.710;9.622;2023-02-11T05:47:03;-2.30;99.90
4643;DHT22;2334;48.710;9.622;2023-02-11T05:49:30;-2.30;99.90
4643;DHT22;2334;48.710;9.622;2023-02-11T05:51:57;-2.30;99.90
4643;DHT22;2334;48.710;9.622;2023-02-11T05:54:24;-2.30;99.90
4643;DHT22;2334;48.710;9.622;2023-02-11T05:56:50;-2.20;99.90
4643;DHT22;2334;48.710;9.622;2023-02-11T05:59:18;-2.20;99.90
4643;DHT22;2334;48.710;9.622;2023-02-11T06:01:45;-2.20;99.90
4643;DHT22;2334;48.710;9.622;2023-02-11T06:04:13;-2.20;99.90
4643;DHT22;2334;48.710;9.622;2023-02-11T06:06:40;-2.20;99.90
4643;DHT22;2334;48.710;9.622;2023-02-11T06:09:08;-2.10;99.90
4643;DHT22;2334;48.710;9.622;2023-02-11T06:11:35;-2.10;99.90
4643;DHT22;2334;48.710;9.622;2023-02-11T06:14:02;-2.10;99.90
4643;DHT22;2334;48.710;9.622;2023-02-11T06:16:29;-2.10;99.90
4643;DHT22;2334;48.710;9.622;2023-02-11T06:18:56;-2.00;99.90
4643;DHT22;2334;48.710;9.622;2023-02-11T06:21:24;-2.00;99.90
4643;DHT22;2334;48.710;9.622;2023-02-11T06:23:51;-2.00;99.90
4643;DHT22;2334;48.710;9.622;2023-02-11T06:26:19;-2.00;99.90
4643;DHT22;2334;48.710;9.622;2023-02-11T06:28:47;-1.90;99.90
4643;DHT22;2334;48.710;9.622;2023-02-11T06:31:14;-1.90;99.90
4643;DHT22;2334;48.710;9.622;2023-02-11T06:33:41;-1.90;99.90
4643;DHT22;2334;48.710;9.622;2023-02-11T06:36:13;-1.90;99.90
4643;DHT22;2334;48.710;9.622;2023-02-11T06:38:42;-1.90;99.90
4643;DHT22;2334;48.710;9.622;2023-02-11T06:41:09;-1.90;99.90
4643;DHT22;2334;48.710;9.622;2023-02-11T06:43:36;-1.90;99.90
4643;DHT22;2334;48.710;9.622;2023-02-11T06:46:03;-1.90;99.90
4643;DHT22;2334;48.710;9.622;2023-02-11T06:48:30;-1.90;99.90
4643;DHT22;2334;48.710;9.622;2023-02-11T06:51:00;-1.90;99.90
4643;DHT22;2334;48.710;9.622;2023-02-11T06:53:28;-1.90;99.90
4643;DHT22;2334;48.710;9.622;2023-02-11T06:56:00;-1.80;99.90
4643;DHT22;2334;48.710;9.622;2023-02-11T06:58:27;-1.80;99.90
4643;DHT22;2334;48.710;9.622;2023-02-11T07:00:54;-1.80;99.90
4643;DHT22;2334;48.710;9.622;2023-02-11T07:03:21;-1.70;99.90
4643;DHT22;2334;48.710;9.622;2023-02-11T07:05:48;-1.70;99.90
4643;DHT22;2334;48.710;9.622;2023-02-11T07:08:15;-1.70;99.90
4643;DHT22;2334;48.710;9.622;2023-02-11T07:10:42;-1.60;99.90
4643;DHT22;2334;48.710;9.622;2023-02-11T07:13:10;-1.60;99.90
4643;DHT22;2334;48.710;9.622;2023-02-11T07:15:37;-1.70;99.90
4643;DHT22;2334;48.710;9.622;2023-02-11T07:18:04;-1.70;99.90
4643;DHT22;2334;48.710;9.622;2023-02-11T07:20:30;-1.70;99.90
4643;DHT22;2334;48.710;9.622;2023-02-11T07:22:57;-1.60;99.90
4643;DHT22;2334;48.710;9.622;2023-02-11T07:25:24;-1.60;99.90
4643;DHT22;2334;48.710;9.622;2023-02-11T07:27:51;-1.60;99.90
4643;DHT22;2334;48.710;9.622;2023-02-11T07:30:20;-1.60;99.90
4643;DHT22;2334;48.710;9.622;2023-02-11T07:32:47;-1.50;99.90
4643;DHT22;2334;48.710;9.622;2023-02-11T07:35:14;-1.50;99.90
4643;DHT22;2334;48.710;9.622;2023-02-11T07:37:41;-1.50;99.90
4643;DHT22;2334;48.710;9.622;2023-02-11T07:40:08;-1.40;99.90
4643;DHT22;2334;48.710;9.622;2023-02-11T07:42:35;-1.40;99.90
4643;DHT22;2334;48.710;9.622;2023-02-11T07:45:04;-1.40;99.90
4643;DHT22;2334;48.710;9.622;2023-02-11T07:47:33;-1.40;99.90
4643;DHT22;2334;48.710;9.622;2023-02-11T07:50:00;-1.40;99.90
4643;DHT22;2334;48.710;9.622;2023-02-11T07:52:28;-1.40;99.90
4643;DHT22;2334;48.710;9.622;2023-02-11T07:54:55;-1.40;99.90
4643;DHT22;2334;48.710;9.622;2023-02-11T07:57:23;-1.20;99.90
4643;DHT22;2334;48.710;9.622;2023-02-11T07:59:50;-1.20;99.90
4643;DHT22;2334;48.710;9.622;2023-02-11T08:02:16;-1.20;99.90
4643;DHT22;2334;48.710;9.622;2023-02-11T08:04:46;-1.10;99.90
4643;DHT22;2334;48.710;9.622;2023-02-11T08:07:14;-1.20;99.90
4643;DHT22;2334;48.710;9.622;2023-02-11T08:09:41;-1.10;99.90
4643;DHT22;2334;48.710;9.622;2023-02-11T08:12:08;-0.90;99.90
4643;DHT22;2334;48.710;9.622;2023-02-11T08:14:35;-1.00;99.90
4643;DHT22;2334;48.710;9.622;2023-02-11T08:17:03;-0.90;99.90
4643;DHT22;2334;48.710;9.622;2023-02-11T08:19:30;-0.90;99.90
4643;DHT22;2334;48.710;9.622;2023-02-11T08:21:59;-0.80;99.90
4643;DHT22;2334;48.710;9.622;2023-02-11T08:24:26;-0.70;99.90
4643;DHT22;2334;48.710;9.622;2023-02-11T08:26:53;-0.70;99.90
4643;DHT22;2334;48.710;9.622;2023-02-11T08:29:20;-0.60;99.90
4643;DHT22;2334;48.710;9.622;2023-02-11T08:31:47;-0.50;99.90
4643;DHT22;2334;48.710;9.622;2023-02-11T08:34:14;-0.50;99.90
4643;DHT22;2334;48.710;9.622;2023-02-11T08:36:44;-0.50;99.90
4643;DHT22;2334;48.710;9.622;2023-02-11T08:39:14;-0.40;99.90
4643;DHT22;2334;48.710;9.622;2023-02-11T08:41:42;-0.40;99.90
4643;DHT22;2334;48.710;9.622;2023-02-11T08:44:09;-0.30;99.90
4643;DHT22;2334;48.710;9.622;2023-02-11T08:46:36;-0.20;99.90
4643;DHT22;2334;48.710;9.622;2023-02-11T08:49:03;-0.10;99.90
4643;DHT22;2334;48.710;9.622;2023-02-11T08:51:30;-0.10;99.90
4643;DHT22;2334;48.710;9.622;2023-02-11T08:53:58;0.10;99.90
4643;DHT22;2334;48.710;9.622;2023-02-11T08:56:27;0.10;99.90
4643;DHT22;2334;48.710;9.622;2023-02-11T08:58:56;0.30;99.90
4643;DHT22;2334;48.710;9.622;2023-02-11T09:01:24;0.40;99.90
4643;DHT22;2334;48.710;9.622;2023-02-11T09:03:52;0.60;99.90
4643;DHT22;2334;48.710;9.622;2023-02-11T09:06:20;1.00;99.90
4643;DHT22;2334;48.710;9.622;2023-02-11T09:08:49;1.10;99.90
4643;DHT22;2334;48.710;9.622;2023-02-11T09:11:30;1.10;99.90
4643;DHT22;2334;48.710;9.622;2023-02-11T09:13:57;1.10;99.90
4643;DHT22;2334;48.710;9.622;2023-02-11T09:16:26;1.10;99.90
4643;DHT22;2334;48.710;9.622;2023-02-11T09:18:55;1.00;99.90
4643;DHT22;2334;48.710;9.622;2023-02-11T09:21:23;0.80;99.90
4643;DHT22;2334;48.710;9.622;2023-02-11T09:23:50;0.70;99.90
4643;DHT22;2334;48.710;9.622;2023-02-11T09:26:18;0.80;99.90
4643;DHT22;2334;48.710;9.622;2023-02-11T09:28:47;0.90;99.90
4643;DHT22;2334;48.710;9.622;2023-02-11T09:31:15;1.00;99.90
4643;DHT22;2334;48.710;9.622;2023-02-11T09:33:44;1.20;99.90
4643;DHT22;2334;48.710;9.622;2023-02-11T09:36:15;1.40;99.90
4643;DHT22;2334;48.710;9.622;2023-02-11T09:38:42;1.60;99.90
4643;DHT22;2334;48.710;9.622;2023-02-11T09:41:31;1.60;99.90
4643;DHT22;2334;48.710;9.622;2023-02-11T09:44:03;1.80;99.90
4643;DHT22;2334;48.710;9.622;2023-02-11T09:46:34;2.00;99.90
4643;DHT22;2334;48.710;9.622;2023-02-11T09:49:02;2.30;99.90
4643;DHT22;2334;48.710;9.622;2023-02-11T09:51:36;2.60;99.90
4643;DHT22;2334;48.710;9.622;2023-02-11T09:54:11;2.30;99.90
4643;DHT22;2334;48.710;9.622;2023-02-11T09:56:39;2.50;99.90
4643;DHT22;2334;48.710;9.622;2023-02-11T09:59:09;2.80;99.90
4643;DHT22;2334;48.710;9.622;2023-02-11T10:01:44;2.90;99.90
4643;DHT22;2334;48.710;9.622;2023-02-11T10:04:18;3.30;99.90
4643;DHT22;2334;48.710;9.622;2023-02-11T10:06:49;3.80;99.90
4643;DHT22;2334;48.710;9.622;2023-02-11T10:12:28;3.60;99.90
4643;DHT22;2334;48.710;9.622;2023-02-11T10:15:12;3.40;99.90
4643;DHT22;2334;48.710;9.622;2023-02-11T10:17:45;3.40;99.90
4643;DHT22;2334;48.710;9.622;2023-02-11T10:20:24;3.60;99.90
4643;DHT22;2334;48.710;9.622;2023-02-11T10:22:59;4.20;99.90
4643;DHT22;2334;48.710;9.622;2023-02-11T10:25:33;4.10;99.90
4643;DHT22;2334;48.710;9.622;2023-02-11T10:28:10;4.00;99.90
4643;DHT22;2334;48.710;9.622;2023-02-11T10:30:42;3.90;99.90
4643;DHT22;2334;48.710;9.622;2023-02-11T10:33:16;4.30;99.90
4643;DHT22;2334;48.710;9.622;2023-02-11T10:35:45;4.30;99.90
4643;DHT22;2334;48.710;9.622;2023-02-11T10:38:12;4.20;99.90
4643;DHT22;2334;48.710;9.622;2023-02-11T10:40:39;4.50;99.90
4643;DHT22;2334;48.710;9.622;2023-02-11T10:43:10;4.70;99.90
4643;DHT22;2334;48.710;9.622;2023-02-11T10:45:42;4.70;99.90
4643;DHT22;2334;48.710;9.622;2023-02-11T10:48:43;4.80;99.90
4643;DHT22;2334;48.710;9.622;2023-02-11T10:51:19;5.00;99.90
4643;DHT22;2334;48.710;9.622;2023-02-11T10:53:47;5.10;99.90
4643;DHT22;2334;48.710;9.622;2023-02-11T10:56:22;5.20;99.90
4643;DHT22;2334;48.710;9.622;2023-02-11T10:58:58;5.10;99.90
4643;DHT22;2334;48.710;9.622;2023-02-11T11:01:43;5.20;99.90
4643;DHT22;2334;48.710;9.622;2023-02-11T11:04:37;5.40;99.90
4643;DHT22;2334;48.710;9.622;2023-02-11T11:07:17;5.30;99.90
4643;DHT22;2334;48.710;9.622;2023-02-11T11:09:49;5.70;99.90
4643;DHT22;2334;48.710;9.622;2023-02-11T11:12:34;6.00;99.90
4643;DHT22;2334;48.710;9.622;2023-02-11T11:15:15;5.90;99.90
4643;DHT22;2334;48.710;9.622;2023-02-11T11:17:44;6.10;99.90
4643;DHT22;2334;48.710;9.622;2023-02-11T11:20:19;6.30;99.90
4643;DHT22;2334;48.710;9.622;2023-02-11T11:22:48;6.20;99.90
4643;DHT22;2334;48.710;9.622;2023-02-11T11:25:23;6.40;99.90
4643;DHT22;2334;48.710;9.622;2023-02-11T11:27:53;6.50;99.90
4643;DHT22;2334;48.710;9.622;2023-02-11T11:30:22;6.50;99.90
4643;DHT22;2334;48.710;9.622;2023-02-11T11:32:52;6.40;99.90
4643;DHT22;2334;48.710;9.622;2023-02-11T11:35:29;6.60;99.90
4643;DHT22;2334;48.710;9.622;2023-02-11T11:38:00;6.80;99.90
4643;DHT22;2334;48.710;9.622;2023-02-11T11:40:30;7.30;99.90
4643;DHT22;2334;48.710;9.622;2023-02-11T11:43:16;7.40;99.90
4643;DHT22;2334;48.710;9.622;2023-02-11T11:45:52;7.10;99.90
4643;DHT22;2334;48.710;9.622;2023-02-11T11:48:25;7.10;99.90
4643;DHT22;2334;48.710;9.622;2023-02-11T11:50:56;7.00;99.90
4643;DHT22;2334;48.710;9.622;2023-02-11T11:53:30;6.80;99.90
4643;DHT22;2334;48.710;9.622;2023-02-11T11:56:03;7.00;99.90
4643;DHT22;2334;48.710;9.622;2023-02-11T11:58:32;7.30;99.90
4643;DHT22;2334;48.710;9.622;2023-02-11T12:01:10;7.40;99.90
4643;DHT22;2334;48.710;9.622;2023-02-11T12:06:51;7.80;99.90
4643;DHT22;2334;48.710;9.622;2023-02-11T12:09:27;8.00;99.90
4643;DHT22;2334;48.710;9.622;2023-02-11T12:12:09;8.00;99.90
4643;DHT22;2334;48.710;9.622;2023-02-11T12:14:44;7.80;99.90
4643;DHT22;2334;48.710;9.622;2023-02-11T12:17:21;7.50;99.90
4643;DHT22;2334;48.710;9.622;2023-02-11T12:20:03;7.70;99.90
4643;DHT22;2334;48.710;9.622;2023-02-11T12:22:40;8.00;99.90
4643;DHT22;2334;48.710;9.622;2023-02-11T12:25:28;8.00;99.90
4643;DHT22;2334;48.710;9.622;2023-02-11T12:28:05;8.20;99.90
4643;DHT22;2334;48.710;9.622;2023-02-11T12:30:45;8.00;99.90
4643;DHT22;2334;48.710;9.622;2023-02-11T12:33:24;7.80;99.90
4643;DHT22;2334;48.710;9.622;2023-02-11T12:36:03;7.90;99.90
4643;DHT22;2334;48.710;9.622;2023-02-11T12:38:50;8.00;99.90
4643;DHT22;2334;48.710;9.622;2023-02-11T12:41:31;8.00;99.90
4643;DHT22;2334;48.710;9.622;2023-02-11T12:44:30;7.80;99.90
4643;DHT22;2334;48.710;9.622;2023-02-11T12:47:08;7.70;99.90
4643;DHT22;2334;48.710;9.622;2023-02-11T12:49:58;7.70;99.90
4643;DHT22;2334;48.710;9.622;2023-02-11T12:52:47;7.70;99.90
4643;DHT22;2334;48.710;9.622;2023-02-11T12:55:20;7.70;99.90
4643;DHT22;2334;48.710;9.622;2023-02-11T12:57:49;7.80;99.90
4643;DHT22;2334;48.710;9.622;2023-02-11T13:00:21;7.90;99.90
4643;DHT22;2334;48.710;9.622;2023-02-11T13:02:54;7.90;99.90
4643;DHT22;2334;48.710;9.622;2023-02-11T13:05:25;7.90;99.90
4643;DHT22;2334;48.710;9.622;2023-02-11T13:07:59;8.00;99.90
4643;DHT22;2334;48.710;9.622;2023-02-11T13:10:32;8.00;99.90
4643;DHT22;2334;48.710;9.622;2023-02-11T13:13:01;8.10;99.90
4643;DHT22;2334;48.710;9.622;2023-02-11T13:15:46;8.20;99.90
4643;DHT22;2334;48.710;9.622;2023-02-11T13:18:30;8.30;99.90
4643;DHT22;2334;48.710;9.622;2023-02-11T13:24:06;8.30;99.90
4643;DHT22;2334;48.710;9.622;2023-02-11T13:26:40;8.30;99.90
4643;DHT22;2334;48.710;9.622;2023-02-11T13:29:21;8.30;99.90
4643;DHT22;2334;48.710;9.622;2023-02-11T13:31:55;8.40;99.90
4643;DHT22;2334;48.710;9.622;2023-02-11T13:34:57;8.50;99.90
4643;DHT22;2334;48.710;9.622;2023-02-11T13:37:30;8.60;99.90
4643;DHT22;2334;48.710;9.622;2023-02-11T13:40:04;8.70;99.90
4643;DHT22;2334;48.710;9.622;2023-02-11T13:42:43;8.70;99.90
4643;DHT22;2334;48.710;9.622;2023-02-11T13:45:16;8.80;99.90
4643;DHT22;2334;48.710;9.622;2023-02-11T13:47:44;8.60;99.90
4643;DHT22;2334;48.710;9.622;2023-02-11T13:50:20;8.70;99.90
4643;DHT22;2334;48.710;9.622;2023-02-11T13:52:56;8.80;99.90
4643;DHT22;2334;48.710;9.622;2023-02-11T13:55:26;8.90;99.90
4643;DHT22;2334;48.710;9.622;2023-02-11T13:58:18;8.90;99.90
4643;DHT22;2334;48.710;9.622;2023-02-11T14:00:47;8.80;99.90
4643;DHT22;2334;48.710;9.622;2023-02-11T14:03:27;8.80;99.90
4643;DHT22;2334;48.710;9.622;2023-02-11T14:09:39;8.80;99.90
4643;DHT22;2334;48.710;9.622;2023-02-11T14:12:22;9.00;99.90
4643;DHT22;2334;48.710;9.622;2023-02-11T14:15:01;9.00;99.90
4643;DHT22;2334;48.710;9.622;2023-02-11T14:17:43;9.20;99.90
4643;DHT22;2334;48.710;9.622;2023-02-11T14:23:25;9.50;99.90
4643;DHT22;2334;48.710;9.622;2023-02-11T14:28:47;9.70;99.90
4643;DHT22;2334;48.710;9.622;2023-02-11T14:31:20;9.60;99.90
4643;DHT22;2334;48.710;9.622;2023-02-11T14:34:13;9.50;99.90
4643;DHT22;2334;48.710;9.622;2023-02-11T14:36:57;9.60;99.90
4643;DHT22;2334;48.710;9.622;2023-02-11T14:39:46;9.70;99.90
4643;DHT22;2334;48.710;9.622;2023-02-11T14:42:18;9.50;99.90
4643;DHT22;2334;48.710;9.622;2023-02-11T14:44:49;9.20;99.90
4643;DHT22;2334;48.710;9.622;2023-02-11T14:47:20;9.10;99.90
4643;DHT22;2334;48.710;9.622;2023-02-11T14:49:49;9.00;99.90
4643;DHT22;2334;48.710;9.622;2023-02-11T14:52:24;9.00;99.90
4643;DHT22;2334;48.710;9.622;2023-02-11T14:54:59;9.00;99.90
4643;DHT22;2334;48.710;9.622;2023-02-11T14:57:28;8.80;99.90
4643;DHT22;2334;48.710;9.622;2023-02-11T14:59:58;8.90;99.90
4643;DHT22;2334;48.710;9.622;2023-02-11T15:02:31;8.80;99.90
4643;DHT22;2334;48.710;9.622;2023-02-11T15:05:19;8.70;99.90
4643;DHT22;2334;48.710;9.622;2023-02-11T15:07:48;8.60;99.90
4643;DHT22;2334;48.710;9.622;2023-02-11T15:10:18;8.50;99.90
4643;DHT22;2334;48.710;9.622;2023-02-11T15:12:46;8.50;99.90
4643;DHT22;2334;48.710;9.622;2023-02-11T15:15:16;8.50;99.90
4643;DHT22;2334;48.710;9.622;2023-02-11T15:17:43;8.40;99.90
4643;DHT22;2334;48.710;9.622;2023-02-11T15:20:19;8.40;99.90
4643;DHT22;2334;48.710;9.622;2023-02-11T15:22:46;8.40;99.90
4643;DHT22;2334;48.710;9.622;2023-02-11T15:25:15;8.40;99.90
4643;DHT22;2334;48.710;9.622;2023-02-11T15:27:46;8.30;99.90
4643;DHT22;2334;48.710;9.622;2023-02-11T15:30:23;8.40;99.90
4643;DHT22;2334;48.710;9.622;2023-02-11T15:32:52;8.30;99.90
4643;DHT22;2334;48.710;9.622;2023-02-11T15:35:23;8.30;99.90
4643;DHT22;2334;48.710;9.622;2023-02-11T15:37:56;8.30;99.90
4643;DHT22;2334;48.710;9.622;2023-02-11T15:40:26;8.40;99.90
4643;DHT22;2334;48.710;9.622;2023-02-11T15:42:57;8.30;99.90
4643;DHT22;2334;48.710;9.622;2023-02-11T15:45:28;8.30;99.90
4643;DHT22;2334;48.710;9.622;2023-02-11T15:48:05;8.30;99.90
4643;DHT22;2334;48.710;9.622;2023-02-11T15:50:33;8.30;99.90
4643;DHT22;2334;48.710;9.622;2023-02-11T15:53:04;8.30;99.90
4643;DHT22;2334;48.710;9.622;2023-02-11T15:55:40;8.30;99.90
4643;DHT22;2334;48.710;9.622;2023-02-11T15:58:08;8.10;99.90
4643;DHT22;2334;48.710;9.622;2023-02-11T16:00:45;8.10;99.90
4643;DHT22;2334;48.710;9.622;2023-02-11T16:03:19;8.10;99.90
4643;DHT22;2334;48.710;9.622;2023-02-11T16:05:46;8.00;99.90
4643;DHT22;2334;48.710;9.622;2023-02-11T16:08:20;7.80;99.90
4643;DHT22;2334;48.710;9.622;2023-02-11T16:10:56;7.70;99.90
4643;DHT22;2334;48.710;9.622;2023-02-11T16:13:23;7.60;99.90
4643;DHT22;2334;48.710;9.622;2023-02-11T16:15:54;7.40;99.90
4643;DHT22;2334;48.710;9.622;2023-02-11T16:18:29;7.40;99.90
4643;DHT22;2334;48.710;9.622;2023-02-11T16:20:57;7.20;99.90
4643;DHT22;2334;48.710;9.622;2023-02-11T16:23:26;7.20;99.90
4643;DHT22;2334;48.710;9.622;2023-02-11T16:25:57;7.30;99.90
4643;DHT22;2334;48.710;9.622;2023-02-11T16:28:25;7.40;99.90
4643;DHT22;2334;48.710;9.622;2023-02-11T16:30:57;7.40;99.90
4643;DHT22;2334;48.710;9.622;2023-02-11T16:33:24;7.50;99.90
4643;DHT22;2334;48.710;9.622;2023-02-11T16:35:51;7.40;99.90
4643;DHT22;2334;48.710;9.622;2023-02-11T16:38:18;7.30;99.90
4643;DHT22;2334;48.710;9.622;2023-02-11T16:40:45;7.30;99.90
4643;DHT22;2334;48.710;9.622;2023-02-11T16:43:14;7.30;99.90
4643;DHT22;2334;48.710;9.622;2023-02-11T16:45:43;7.20;99.90
4643;DHT22;2334;48.710;9.622;2023-02-11T16:48:16;7.10;99.90
4643;DHT22;2334;48.710;9.622;2023-02-11T16:50:48;7.20;99.90
4643;DHT22;2334;48.710;9.622;2023-02-11T16:53:19;7.10;99.90
4643;DHT22;2334;48.710;9.622;2023-02-11T16:55:47;7.10;99.90
4643;DHT22;2334;48.710;9.622;2023-02-11T16:58:14;7.00;99.90